Latest Coastal Weather Observations for Cocos Island

IDW60701

Issued at 11:42 pm WST Sunday 21 December 2014 (issued every 10 minutes, with the page automatically refreshed every 10 minutes)

About coastal observations | Map of coastal stations | Coastal observations for WA | Marine services | Other Formats
Station Details ID: 200284 Name: COCOS ISLAND AIRPORT Lat: -12.19 Lon: 96.83 Height: 3.0 m
Data from the previous 72 hours. | See also: Recent months at Cocos Island
Date/Time
WST
Temp

°C
Wind Pressure Rain
since 9am
mm
Weather Cloud Vis
km
Sea
Height
m
Swell
Dir
 
Speed
knots
Gust
knots
hPa Trend Height
m
Period
s
Dir
21/11:30pm 26.5 SE 12 16 1010.0 - 0.0 - Partly cloudy 10 - - - -
21/11:00pm 26.6 SE 13 16 1009.9 - 0.0 - Cloudy 10 - - - -
21/10:30pm 26.6 SE 13 17 1009.8 - 0.0 - Partly cloudy 10 - - - -
21/10:00pm 26.9 SE 12 16 1009.5 - 0.0 - Partly cloudy 10 - - - -
21/09:30pm 26.9 ESE 13 16 1009.3 - 0.0 - Partly cloudy 10 - - - -
21/09:00pm 26.1 SSE 9 11 1009.1 - 0.0 - Partly cloudy 10 - - - -
21/08:30pm 25.9 SSE 11 13 1008.9 - 0.0 - Partly cloudy 10 - - - -
21/08:00pm 26.3 SE 11 16 1008.6 - 0.0 - - 10 - - - -
21/07:30pm 26.5 SSE 12 15 1008.1 - 0.0 - Partly cloudy 10 - - - -
21/07:00pm 27.2 SE 12 16 1007.9 - 0.0 - - 10 - - - -
21/06:30pm 27.3 SE 13 15 1007.8 - 0.0 - Partly cloudy 10 - - - -
21/06:00pm 28.0 SE 12 15 1007.7 - 0.0 - Mostly clear 10 - - - -
21/05:30pm 28.0 SE 13 17 1007.6 - 0.0 - Mostly clear 10 - - - -
21/05:00pm 28.5 SE 12 16 1007.7 - 0.0 Fine Mostly cloudy 20 - - - -
21/04:30pm 28.6 SE 12 15 1007.9 - 0.0 - Mostly clear 10 - - - -
21/04:00pm 28.7 SE 14 17 1008.1 - 0.0 - Mostly clear 10 - - - -
21/03:30pm 28.2 SE 14 17 1008.5 - 0.0 - Partly cloudy 10 - - - -
21/03:00pm 28.7 SE 14 17 1008.8 - 0.0 - Partly cloudy 10 - - - -
21/02:30pm 29.1 SE 15 19 1009.1 - 0.0 - Mostly clear 10 - - - -
21/02:00pm 29.0 SE 15 19 1009.3 - 0.0 Fine Mostly cloudy 22 - - - -
21/01:30pm 28.7 SE 16 21 1009.5 - 0.0 - Mostly clear 10 - - - -
21/01:00pm 29.0 SE 16 20 1009.9 - 0.0 - Mostly clear 10 - - - -
21/12:30pm 29.1 ESE 15 19 1010.2 - 0.0 - Mostly clear 10 - - - -
21/12:00pm 28.7 SE 15 19 1010.3 - 0.0 - Mostly clear 10 - - - -
21/11:30am 28.4 SE 15 19 1010.4 - 0.0 - Mostly clear 10 - - - -
21/11:00am 28.2 SE 16 21 1010.4 - 0.0 Fine Partly cloudy 20 - - - -
21/10:30am 28.0 SE 17 21 1010.4 - 0.0 - Mostly clear 10 - - - -
21/10:00am 27.5 SE 17 22 1010.1 - 0.0 - Mostly clear 10 - - - -
21/09:30am 26.9 SE 17 22 1010.0 - 0.0 - Mostly clear 10 - - - -
21/09:00am 26.6 SE 17 23 1010.0 - 0.0 - Mostly clear 10 - - - -
21/08:30am 26.2 SE 16 22 1009.8 - 0.0 - Mostly clear 10 - - - -
21/08:00am 25.9 SE 17 22 1009.6 - 0.0 Fine Partly cloudy 17 - - - -
21/07:30am 25.6 SE 16 21 1009.1 - 0.0 - Mostly clear 10 - - - -
21/07:00am 25.5 SE 15 19 1008.8 - 0.0 - Mostly clear 10 - - - -
21/06:30am 25.7 SE 15 18 1008.7 - 0.0 - Partly cloudy 10 - - - -
21/06:00am 25.5 SE 15 18 1008.7 - 0.0 - - 10 - - - -
21/05:30am 25.4 SE 15 21 1008.7 - 0.0 - - 10 - - - -
21/05:00am 25.6 ESE 15 19 1008.8 - 0.0 - Cloudy 10 - - - -
21/04:30am 25.2 SE 15 19 1009.1 - 0.0 - Partly cloudy 10 - - - -
21/04:00am 25.8 SE 15 19 1009.5 - 0.0 - Partly cloudy 10 - - - -
21/03:30am 26.2 SE 13 17 1009.8 - 0.0 - Partly cloudy 10 - - - -
21/03:00am 25.8 SE 12 15 1010.2 - 0.0 - Cloudy 10 - - - -
21/02:30am 25.3 SE 12 15 1010.6 - 0.0 - Cloudy 10 - - - -
21/02:00am 25.2 SE 14 18 1011.0 - 0.0 - - 10 - - - -
21/01:30am 25.0 ESE 16 21 1011.2 - 0.0 - Partly cloudy 10 - - - -
21/01:00am 26.1 SE 15 22 1011.4 - 0.0 - Partly cloudy 10 - - - -
21/12:30am 25.4 SE 13 20 1011.6 - 0.0 - Partly cloudy 7 - - - -
21/12:07am 25.6 SSE 12 18 1011.6 - 0.0 - Partly cloudy 10 - - - -
21/12:00am 25.2 SSE 13 18 1011.6 - 0.0 - Partly cloudy 9 - - - -
 
Date/Time
WST
Temp

°C
Wind Pressure Rain
since 9am
mm
Weather Cloud Vis
km
Sea
Height
m
Swell
Dir
 
Speed
knots
Gust
knots
hPa Trend Height
m
Period
s
Dir
20/11:52pm 24.5 SE 18 24 1011.6 - 0.0 - Partly cloudy 6 - - - -
20/11:30pm 26.3 SE 15 20 1011.3 - 0.0 - Partly cloudy 10 - - - -
20/11:00pm 26.3 SE 16 21 1011.0 - 0.0 - Cloudy 10 - - - -
20/10:30pm 26.3 SE 17 22 1010.8 - 0.0 - Partly cloudy 10 - - - -
20/10:00pm 26.4 SE 18 23 1010.5 - 0.0 - Partly cloudy 10 - - - -
20/09:30pm 26.5 SE 17 23 1010.2 - 0.0 - Partly cloudy 10 - - - -
20/09:00pm 26.6 SE 18 22 1010.0 - 0.0 - Partly cloudy 10 - - - -
20/08:30pm 26.4 SE 19 24 1009.8 - 0.0 - Partly cloudy 10 - - - -
20/08:00pm 26.6 SE 19 23 1009.5 - 0.0 - Cloudy 10 - - - -
20/07:30pm 27.0 SE 17 21 1009.1 - 0.0 - Partly cloudy 10 - - - -
20/07:00pm 27.4 SE 16 20 1008.9 - 0.0 - Partly cloudy 10 - - - -
20/06:30pm 27.3 SE 18 22 1008.8 - 0.0 - Partly cloudy 10 - - - -
20/06:00pm 27.0 SE 19 23 1008.8 - 0.0 - Mostly clear 10 - - - -
20/05:50pm 26.8 SE 17 23 1008.8 - 0.0 - Mostly clear 10 - - - -
20/05:30pm 26.1 SE 17 24 1008.8 - 0.0 Showers Partly cloudy 4 - - - -
20/05:25pm 26.9 SE 16 21 1008.9 - 0.0 Showers Partly cloudy 5 - - - -
20/05:00pm 27.4 SE 17 21 1008.9 - 0.0 Distant precip. Cloudy 17 - - - -
20/04:30pm 28.0 SE 17 20 1009.1 - 0.0 - Mostly clear 10 - - - -
20/04:00pm 28.0 SE 16 21 1009.5 - 0.0 - Partly cloudy 10 - - - -
20/03:55pm 27.7 SE 15 21 1009.6 - 0.0 - Partly cloudy 10 - - - -
20/03:30pm 26.3 ESE 17 23 1010.1 - 0.0 Showers Partly cloudy 5 - - - -
20/03:00pm 28.3 SE 15 19 1010.2 - 0.0 - Mostly clear 10 - - - -
20/02:30pm 29.0 SE 14 18 1010.5 - 0.0 Showers Partly cloudy 10 - - - -
20/02:00pm 28.6 SE 15 20 1010.9 - 0.0 Fine Cloudy 18 - - - -
20/01:30pm 28.3 SE 17 22 1011.2 - 0.0 - Mostly clear 10 - - - -
20/01:00pm 27.9 ESE 15 20 1011.6 - 0.0 - Partly cloudy 10 - - - -
20/12:30pm 28.4 SE 15 19 1011.8 - 0.0 - Mostly clear 10 - - - -
20/12:00pm 28.7 SE 17 21 1012.0 - 0.0 - Mostly clear 10 - - - -
20/11:30am 29.0 SE 15 20 1012.2 - 0.0 - Mostly clear 10 - - - -
20/11:00am 28.9 SE 14 19 1012.3 - 0.0 Fine Mostly cloudy 20 - - - -
20/10:30am 28.1 SE 15 19 1012.4 - 0.0 - Mostly clear 10 - - - -
20/10:00am 28.2 SE 14 19 1012.2 - 0.0 - Partly cloudy 10 - - - -
20/09:30am 27.2 SE 13 17 1011.9 - 0.0 - Mostly clear 10 - - - -
20/09:00am 26.8 SE 13 17 1011.6 - 0.0 - Mostly clear 10 - - - -
20/08:30am 26.6 SE 13 17 1011.4 - 0.0 - Mostly clear 10 - - - -
20/08:00am 26.4 SE 12 16 1011.2 - 0.0 Fine Mostly cloudy 17 - - - -
20/07:30am 26.2 SE 12 15 1011.0 - 0.0 - Mostly clear 10 - - - -
20/07:00am 25.9 SE 13 17 1010.7 - 0.0 - Mostly clear 10 - - - -
20/06:30am 26.0 SE 13 16 1010.5 - 0.0 - Partly cloudy 10 - - - -
20/06:00am 26.0 SE 12 16 1010.4 - 0.0 - Partly cloudy 10 - - - -
20/05:30am 26.1 SE 13 16 1010.6 - 0.0 - Partly cloudy 10 - - - -
20/05:00am 26.1 SE 13 16 1010.6 - 0.0 - Cloudy 10 - - - -
20/04:30am 26.0 SE 12 15 1010.7 - 0.0 - Partly cloudy 10 - - - -
20/04:00am 26.2 SE 14 18 1010.9 - 0.0 - Partly cloudy 10 - - - -
20/03:30am 26.2 SE 14 18 1011.1 - 0.0 - - 10 - - - -
20/03:00am 26.3 SE 14 17 1011.4 - 0.0 - - 10 - - - -
20/02:30am 26.3 SE 14 18 1011.6 - 0.0 - - 10 - - - -
20/02:00am 26.3 SE 15 19 1012.1 - 0.0 - - 10 - - - -
20/01:30am 26.3 SE 15 19 1012.7 - 0.0 - Partly cloudy 10 - - - -
20/01:00am 26.3 SE 15 19 1013.0 - 0.0 - Partly cloudy 10 - - - -
20/12:30am 26.3 SE 16 21 1013.3 - 0.0 - - 10 - - - -
20/12:00am 26.4 ESE 14 19 1013.4 - 0.0 - Partly cloudy 10 - - - -
 
Date/Time
WST
Temp

°C
Wind Pressure Rain
since 9am
mm
Weather Cloud Vis
km
Sea
Height
m
Swell
Dir
 
Speed
knots
Gust
knots
hPa Trend Height
m
Period
s
Dir
19/11:30pm 26.4 SE 16 20 1013.5 - 0.0 - Partly cloudy 10 - - - -
19/11:00pm 26.4 SE 16 19 1013.4 - 0.0 - Cloudy 10 - - - -
19/10:30pm 26.6 SE 15 18 1013.2 - 0.0 - - 10 - - - -
19/10:00pm 26.7 SE 16 20 1013.0 - 0.0 - - 10 - - - -
19/09:30pm 26.8 SE 15 19 1012.9 - 0.0 - - 10 - - - -
19/09:00pm 26.8 SE 14 19 1012.6 - 0.0 - Partly cloudy 10 - - - -
19/08:30pm 26.9 SE 14 20 1012.4 - 0.0 - Partly cloudy 10 - - - -
19/08:00pm 27.1 SE 14 18 1012.0 - 0.0 - Cloudy 10 - - - -
19/07:30pm 27.0 SE 15 20 1011.6 - 0.0 - Partly cloudy 10 - - - -
19/07:00pm 27.2 SE 15 19 1011.2 - 0.0 - Cloudy 10 - - - -
19/06:30pm 27.7 SE 15 19 1010.9 - 0.0 - Cloudy 10 - - - -
19/06:00pm 27.9 SE 15 19 1010.7 - 0.0 - Mostly clear 10 - - - -
19/05:30pm 28.5 SE 15 19 1010.7 - 0.0 - Mostly clear 10 - - - -
19/05:00pm 28.1 SE 14 19 1010.8 - 0.0 - Mostly clear 10 - - - -
19/04:30pm 28.5 SE 13 18 1011.0 - 0.0 - Mostly clear 10 - - - -
19/04:00pm 28.5 SE 13 17 1011.4 - 0.0 - Mostly clear 10 - - - -
19/03:30pm 28.3 SE 14 16 1011.7 - 0.0 - Mostly clear 10 - - - -
19/03:00pm 29.1 SE 13 17 1011.9 - 0.0 - Mostly clear 10 - - - -
19/02:30pm 28.6 ESE 14 19 1012.2 - 0.0 - Mostly clear 10 - - - -
19/02:00pm 29.0 SE 14 19 1012.3 - 0.0 Fine Mostly cloudy 15 - - - -
19/01:30pm 28.8 SE 15 19 1012.5 - 0.0 - Mostly clear 10 - - - -
19/01:00pm 29.0 SE 15 19 1012.7 - 0.0 - Mostly clear 10 - - - -
19/12:30pm 28.6 SE 15 18 1013.0 - 0.0 - Partly cloudy 10 - - - -
19/12:00pm 28.8 ESE 14 19 1012.9 - 0.0 - Mostly clear 10 - - - -
19/11:30am 29.0 ESE 14 17 1013.0 - 0.0 - Mostly clear 10 - - - -
19/11:00am 28.5 ESE 13 19 1013.0 - 0.8 Fine Partly cloudy 15 - - - -
19/10:30am 28.3 ESE 13 17 1013.0 - 0.8 - Mostly clear 10 - - - -
19/10:00am 27.9 ESE 14 19 1012.9 - 0.8 - Mostly clear 10 - - - -
19/09:30am 27.7 SE 15 19 1012.8 - 0.8 - Mostly clear 10 - - - -
19/09:00am 27.5 SE 13 18 1012.5 - 0.8 - Mostly clear 10 - - - -
19/08:30am 27.1 SE 15 19 1012.3 - 0.8 - Mostly clear 10 - - - -
19/08:00am 26.6 SE 13 16 1012.1 - 0.8 Fine Mostly clear 15 - - - -
19/07:30am 26.3 SE 13 16 1011.7 - 0.8 - Mostly clear 10 - - - -
19/07:00am 26.2 SE 14 17 1011.4 - 0.8 - Mostly clear 10 - - - -
19/06:30am 26.1 SE 14 19 1011.1 - 0.8 - Partly cloudy 10 - - - -
19/06:00am 26.1 SSE 12 16 1010.8 - 0.8 - Partly cloudy 10 - - - -
19/05:30am 26.4 SE 13 17 1010.6 - 0.6 - Partly cloudy 10 - - - -
19/05:00am 26.4 SE 13 17 1010.6 - 0.6 - - 10 - - - -
19/04:30am 26.4 SE 13 16 1010.7 - 0.6 - Cloudy 10 - - - -
19/04:00am 26.3 SE 13 17 1010.9 - 0.6 - Partly cloudy 10 - - - -
19/03:30am 26.0 SE 13 19 1011.2 - 0.6 - Partly cloudy 10 - - - -
19/03:00am 25.7 SE 15 20 1011.3 - 0.6 - Partly cloudy 10 - - - -
19/02:30am 26.4 SE 13 16 1011.4 - 0.6 - Partly cloudy 10 - - - -
19/02:00am 26.4 SE 13 18 1011.6 - 0.6 - Cloudy 10 - - - -
19/01:30am 26.4 SE 13 17 1011.8 - 0.6 - Partly cloudy 10 - - - -

Other Formats:

Comma delimited format used in spreadsheet applications
http://www.bom.gov.au/fwo/IDW60701/IDW60701.96996.axf

JavaScript Object Notation format (JSON) in row-major order
http://www.bom.gov.au/fwo/IDW60701/IDW60701.96996.json